Bennett, CO

1:18 PM MDT on July 27, 2016 (GMT -0600)
Front Range | | Change Station

Elev 5512 ft 39.79 °N, 104.54 °W | Updated 31 minutes ago

Partly Cloudy
Partly Cloudy
84 °F
Feels Like 83 °F
N
6
Wind Variable Wind from NNE

Today
High -- | Low -- °F
--% Chance of Precip.
Yesterday
High -- | Low -- °F
Precip. -- in
Pressure 30.22 in
Visibility -9999.0 miles
Clouds Few 15000 ft
Heat Index 83 °F
Dew Point 54 °F
Humidity 35%
Rainfall 0.00 in
Snow Depth Not available.
5:53 AM 8:15 PM
Last Quarter, 40% visible
METAR KFTG 271847Z 03005KT 10NM FEW150 29/12 A3022
Pressure 30.22 in
Visibility -9999.0 miles
Clouds Few 15000 ft
Heat Index 83 °F
Dew Point 54 °F
Humidity 35%
Rainfall 0.00 in
Snow Depth Not available.
5:53 AM 8:15 PM
Last Quarter, 40% visible
METAR KFTG 271847Z 03005KT 10NM FEW150 29/12 A3022

10-Day Weather Forecast

Almanac

Astronomy

Jul. 27, 2016 Rise Set
Actual Time
Civil Twilight
Nautical Twilight
Astronomical Twilight
Moon
Length of Visible Light
Length of Day
Tomorrow will be .
, % of the Moon is Illuminated

Today's Extremes

State Highs State Lows

Community

WunderPhotos

Upload Photos

1,927,909 photos uploaded!

WunderBlog® & News

Nearby

Air Quality

  Air Quality AQ Index Pollutant
Not available.

Snow Depth

Station Depth Elevation

Earthquake Activity

City Distance Mag. Time & Date
Minimum magnitude displayed is 2.5.

Coastal Water Temperatures

Place Temperature

Stations

Nearby Weather Stations

Station Location Temp. Windchill Dew Point Humidity Wind Precip. Elev Updated Type
                   

Watches & Warnings

There are currently no watches in effect.